KCRW Airport Diagram

We have created a template for each of the higher traffic airports in the vZID airspace. They include KCMH, KCRW, KCVG, KDAY, KIND, KLEX and KSDF. You wil find usefull information including the airport diagram, weather, and specific airport procedures.

KCRW Weather

[Source: ADDS]
METAR
KCRW 232354Z 00000KT 10SM CLR 11/M12 A3029 RMK AO2 SLP259 T01061122 10133 20100 53005 =
KCRW 232321Z 2400/2424 00000KT P6SM SKC FM241600 21004KT P6SM SCT200 FM242300 24004KT P6SM OVC120
TAF
KCRW 232321Z 2400/2424 00000KT P6SM SKC FM241600 21004KT P6SM SCT200 FM242300 24004KT P6SM OVC120 =

KCRW Operations

Calm wind runway up to 10kts: Rw 23

 

JSN Epic template designed by JoomlaShine.com